sensor_id;sensor_type;location;lat;lon;timestamp;pressure;altitude;pressure_sealevel;temperature;humidity
23241;BME280;11789;53.482;9.862;2023-02-28T00:00:19;103257.84;;;1.64;88.37
23241;BME280;11789;53.482;9.862;2023-02-28T00:02:45;103259.63;;;1.65;88.09
23241;BME280;11789;53.482;9.862;2023-02-28T00:05:13;103249.19;;;1.62;88.06
23241;BME280;11789;53.482;9.862;2023-02-28T00:07:39;103252.22;;;1.68;88.62
23241;BME280;11789;53.482;9.862;2023-02-28T00:10:07;103259.09;;;1.69;88.96
23241;BME280;11789;53.482;9.862;2023-02-28T00:12:34;103252.84;;;1.65;89.54
23241;BME280;11789;53.482;9.862;2023-02-28T00:15:01;103257.31;;;1.68;90.25
23241;BME280;11789;53.482;9.862;2023-02-28T00:17:26;103256.00;;;1.73;90.55
23241;BME280;11789;53.482;9.862;2023-02-28T00:19:52;103255.41;;;1.77;89.92
23241;BME280;11789;53.482;9.862;2023-02-28T00:22:19;103262.97;;;1.75;88.70
23241;BME280;11789;53.482;9.862;2023-02-28T00:24:45;103261.44;;;1.77;88.45
23241;BME280;11789;53.482;9.862;2023-02-28T00:27:11;103259.63;;;1.76;89.17
23241;BME280;11789;53.482;9.862;2023-02-28T00:29:37;103256.31;;;1.77;91.30
23241;BME280;11789;53.482;9.862;2023-02-28T00:32:03;103261.19;;;1.74;92.30
23241;BME280;11789;53.482;9.862;2023-02-28T00:34:29;103262.19;;;1.76;92.91
23241;BME280;11789;53.482;9.862;2023-02-28T00:36:54;103262.19;;;1.76;93.25
23241;BME280;11789;53.482;9.862;2023-02-28T00:39:20;103260.66;;;1.78;92.57
23241;BME280;11789;53.482;9.862;2023-02-28T00:41:45;103252.22;;;1.79;90.95
23241;BME280;11789;53.482;9.862;2023-02-28T00:44:11;103256.63;;;1.70;91.17
23241;BME280;11789;53.482;9.862;2023-02-28T00:46:38;103253.09;;;1.68;92.12
23241;BME280;11789;53.482;9.862;2023-02-28T00:49:03;103260.25;;;1.62;92.31
23241;BME280;11789;53.482;9.862;2023-02-28T00:51:29;103260.25;;;1.62;92.87
23241;BME280;11789;53.482;9.862;2023-02-28T00:53:54;103259.63;;;1.65;92.90
23241;BME280;11789;53.482;9.862;2023-02-28T00:56:20;103257.19;;;1.66;93.51
23241;BME280;11789;53.482;9.862;2023-02-28T00:58:45;103263.06;;;1.65;92.57
23241;BME280;11789;53.482;9.862;2023-02-28T01:01:11;103265.25;;;1.61;93.34
23241;BME280;11789;53.482;9.862;2023-02-28T01:03:39;103268.78;;;1.51;94.44
23241;BME280;11789;53.482;9.862;2023-02-28T01:06:05;103272.78;;;1.47;95.38
23241;BME280;11789;53.482;9.862;2023-02-28T01:08:30;103269.22;;;1.45;96.49
23241;BME280;11789;53.482;9.862;2023-02-28T01:11:16;103274.56;;;1.48;96.39
23241;BME280;11789;53.482;9.862;2023-02-28T01:13:43;103271.88;;;1.47;96.04
23241;BME280;11789;53.482;9.862;2023-02-28T01:16:09;103278.84;;;1.38;96.55
23241;BME280;11789;53.482;9.862;2023-02-28T01:18:35;103278.69;;;1.24;96.72
23241;BME280;11789;53.482;9.862;2023-02-28T01:21:06;103279.38;;;1.22;95.87
23241;BME280;11789;53.482;9.862;2023-02-28T01:23:35;103277.81;;;1.24;95.13
23241;BME280;11789;53.482;9.862;2023-02-28T01:26:16;103279.75;;;1.16;95.03
23241;BME280;11789;53.482;9.862;2023-02-28T01:28:42;103274.44;;;1.13;94.87
23241;BME280;11789;53.482;9.862;2023-02-28T01:31:09;103278.44;;;1.21;95.51
23241;BME280;11789;53.482;9.862;2023-02-28T01:33:35;103279.38;;;1.22;95.57
23241;BME280;11789;53.482;9.862;2023-02-28T01:36:04;103274.81;;;1.18;96.20
23241;BME280;11789;53.482;9.862;2023-02-28T01:38:31;103268.31;;;1.11;96.20
23241;BME280;11789;53.482;9.862;2023-02-28T01:40:57;103279.28;;;1.10;95.76
23241;BME280;11789;53.482;9.862;2023-02-28T01:43:25;103271.66;;;1.10;95.05
23241;BME280;11789;53.482;9.862;2023-02-28T01:45:53;103279.44;;;1.12;94.15
23241;BME280;11789;53.482;9.862;2023-02-28T01:48:19;103282.09;;;1.13;93.50
23241;BME280;11789;53.482;9.862;2023-02-28T01:50:47;103278.75;;;1.14;92.87
23241;BME280;11789;53.482;9.862;2023-02-28T01:53:18;103274.03;;;1.19;92.08
23241;BME280;11789;53.482;9.862;2023-02-28T01:55:47;103274.91;;;1.19;92.21
23241;BME280;11789;53.482;9.862;2023-02-28T01:58:16;103276.47;;;1.17;92.29
23241;BME280;11789;53.482;9.862;2023-02-28T02:00:42;103264.97;;;1.22;92.18
23241;BME280;11789;53.482;9.862;2023-02-28T02:03:11;103268.94;;;1.30;92.67
23241;BME280;11789;53.482;9.862;2023-02-28T02:05:39;103265.62;;;1.32;93.40
23241;BME280;11789;53.482;9.862;2023-02-28T02:08:08;103266.19;;;1.27;95.14
23241;BME280;11789;53.482;9.862;2023-02-28T02:10:54;103267.19;;;1.29;95.59
23241;BME280;11789;53.482;9.862;2023-02-28T02:16:34;103269.72;;;1.29;94.24
23241;BME280;11789;53.482;9.862;2023-02-28T02:22:30;103256.44;;;1.22;94.78
23241;BME280;11789;53.482;9.862;2023-02-28T02:36:42;103268.00;;;0.85;95.68
23241;BME280;11789;53.482;9.862;2023-02-28T02:42:08;103264.47;;;0.50;96.93
23241;BME280;11789;53.482;9.862;2023-02-28T02:44:43;103265.31;;;0.29;97.18
23241;BME280;11789;53.482;9.862;2023-02-28T02:47:16;103268.56;;;0.16;97.09
23241;BME280;11789;53.482;9.862;2023-02-28T02:49:49;103269.72;;;0.10;96.66
23241;BME280;11789;53.482;9.862;2023-02-28T02:52:18;103267.44;;;0.03;96.38
23241;BME280;11789;53.482;9.862;2023-02-28T02:54:48;103264.28;;;-0.05;96.46
23241;BME280;11789;53.482;9.862;2023-02-28T02:57:26;103267.37;;;-0.09;96.02
23241;BME280;11789;53.482;9.862;2023-02-28T02:59:56;103278.03;;;-0.13;96.12
23241;BME280;11789;53.482;9.862;2023-02-28T03:02:23;103267.37;;;-0.09;96.60
23241;BME280;11789;53.482;9.862;2023-02-28T03:04:52;103265.94;;;-0.06;97.14
23241;BME280;11789;53.482;9.862;2023-02-28T03:07:19;103265.81;;;-0.07;97.42
23241;BME280;11789;53.482;9.862;2023-02-28T03:09:52;103269.28;;;-0.17;97.67
23241;BME280;11789;53.482;9.862;2023-02-28T03:12:19;103267.13;;;-0.22;97.83
23241;BME280;11789;53.482;9.862;2023-02-28T03:14:59;103269.28;;;-0.27;97.79
23241;BME280;11789;53.482;9.862;2023-02-28T03:20:32;103280.22;;;-0.18;97.64
23241;BME280;11789;53.482;9.862;2023-02-28T03:23:23;103277.03;;;-0.26;97.95
23241;BME280;11789;53.482;9.862;2023-02-28T03:25:56;103278.19;;;-0.42;98.18
23241;BME280;11789;53.482;9.862;2023-02-28T03:29:02;103276.16;;;-0.57;98.60
23241;BME280;11789;53.482;9.862;2023-02-28T03:32:05;103277.56;;;-0.70;98.16
23241;BME280;11789;53.482;9.862;2023-02-28T03:34:45;103279.06;;;-0.72;97.76
23241;BME280;11789;53.482;9.862;2023-02-28T03:37:16;103284.91;;;-0.73;97.47
23241;BME280;11789;53.482;9.862;2023-02-28T03:39:54;103275.78;;;-0.61;97.89
23241;BME280;11789;53.482;9.862;2023-02-28T03:42:26;103284.81;;;-0.44;97.29
23241;BME280;11789;53.482;9.862;2023-02-28T03:45:02;103282.00;;;-0.47;96.64
23241;BME280;11789;53.482;9.862;2023-02-28T03:47:37;103278.69;;;-0.57;97.14
23241;BME280;11789;53.482;9.862;2023-02-28T03:50:11;103285.59;;;-0.56;98.12
23241;BME280;11789;53.482;9.862;2023-02-28T03:52:48;103282.12;;;-0.66;98.18
23241;BME280;11789;53.482;9.862;2023-02-28T03:55:16;103288.22;;;-0.74;98.18
23241;BME280;11789;53.482;9.862;2023-02-28T03:58:23;103290.13;;;-0.62;97.70
23241;BME280;11789;53.482;9.862;2023-02-28T04:00:59;103290.41;;;-0.59;97.15
23241;BME280;11789;53.482;9.862;2023-02-28T04:03:38;103290.87;;;-0.73;97.10
23241;BME280;11789;53.482;9.862;2023-02-28T04:06:12;103297.87;;;-0.81;97.63
23241;BME280;11789;53.482;9.862;2023-02-28T04:08:40;103290.47;;;-0.88;98.00
23241;BME280;11789;53.482;9.862;2023-02-28T04:11:16;103294.94;;;-0.95;98.35
23241;BME280;11789;53.482;9.862;2023-02-28T04:13:43;103292.75;;;-1.01;99.17
23241;BME280;11789;53.482;9.862;2023-02-28T04:16:10;103290.97;;;-1.02;99.32
23241;BME280;11789;53.482;9.862;2023-02-28T04:18:41;103289.47;;;-1.00;99.46
23241;BME280;11789;53.482;9.862;2023-02-28T04:21:08;103289.56;;;-1.09;99.86
23241;BME280;11789;53.482;9.862;2023-02-28T04:23:34;103294.88;;;-1.16;100.00
23241;BME280;11789;53.482;9.862;2023-02-28T04:26:00;103296.12;;;-1.21;100.00
23241;BME280;11789;53.482;9.862;2023-02-28T04:28:25;103291.19;;;-1.19;100.00
23241;BME280;11789;53.482;9.862;2023-02-28T04:30:58;103290.69;;;-1.15;99.38
23241;BME280;11789;53.482;9.862;2023-02-28T04:33:43;103295.78;;;-1.15;99.11
23241;BME280;11789;53.482;9.862;2023-02-28T04:36:08;103296.78;;;-1.13;98.86
23241;BME280;11789;53.482;9.862;2023-02-28T04:38:36;103292.72;;;-1.21;99.24
23241;BME280;11789;53.482;9.862;2023-02-28T04:41:02;103287.09;;;-1.27;99.74
23241;BME280;11789;53.482;9.862;2023-02-28T04:43:47;103283.06;;;-1.25;99.86
23241;BME280;11789;53.482;9.862;2023-02-28T04:46:12;103290.72;;;-1.05;99.03
23241;BME280;11789;53.482;9.862;2023-02-28T04:48:39;103296.06;;;-0.92;98.42
23241;BME280;11789;53.482;9.862;2023-02-28T04:51:09;103290.59;;;-0.96;97.87
23241;BME280;11789;53.482;9.862;2023-02-28T04:53:36;103289.06;;;-1.05;97.96
23241;BME280;11789;53.482;9.862;2023-02-28T04:56:03;103287.87;;;-1.18;98.13
23241;BME280;11789;53.482;9.862;2023-02-28T04:58:29;103284.06;;;-1.23;98.73
23241;BME280;11789;53.482;9.862;2023-02-28T05:01:04;103295.38;;;-1.20;98.90
23241;BME280;11789;53.482;9.862;2023-02-28T05:03:38;103295.62;;;-1.17;98.64
23241;BME280;11789;53.482;9.862;2023-02-28T05:06:06;103302.50;;;-1.16;97.99
23241;BME280;11789;53.482;9.862;2023-02-28T05:08:32;103297.87;;;-1.30;98.29
23241;BME280;11789;53.482;9.862;2023-02-28T05:10:57;103299.34;;;-1.42;98.71
23241;BME280;11789;53.482;9.862;2023-02-28T05:13:23;103304.69;;;-1.39;99.19
23241;BME280;11789;53.482;9.862;2023-02-28T05:15:49;103305.88;;;-1.25;99.16
23241;BME280;11789;53.482;9.862;2023-02-28T05:18:14;103306.69;;;-1.16;97.89
23241;BME280;11789;53.482;9.862;2023-02-28T05:20:40;103314.06;;;-1.09;96.75
23241;BME280;11789;53.482;9.862;2023-02-28T05:23:05;103312.28;;;-1.10;96.34
23241;BME280;11789;53.482;9.862;2023-02-28T05:25:31;103310.84;;;-1.17;96.47
23241;BME280;11789;53.482;9.862;2023-02-28T05:27:56;103309.19;;;-1.26;96.58
23241;BME280;11789;53.482;9.862;2023-02-28T05:30:22;103311.56;;;-1.28;97.41
23241;BME280;11789;53.482;9.862;2023-02-28T05:32:51;103308.91;;;-1.29;97.68
23241;BME280;11789;53.482;9.862;2023-02-28T05:35:16;103308.28;;;-1.27;97.70
23241;BME280;11789;53.482;9.862;2023-02-28T05:37:42;103307.87;;;-1.42;97.90
23241;BME280;11789;53.482;9.862;2023-02-28T05:40:08;103316.69;;;-1.57;98.65
23241;BME280;11789;53.482;9.862;2023-02-28T05:42:37;103309.06;;;-1.57;99.16
23241;BME280;11789;53.482;9.862;2023-02-28T05:45:03;103317.44;;;-1.48;99.22
23241;BME280;11789;53.482;9.862;2023-02-28T05:47:29;103309.78;;;-1.58;98.86
23241;BME280;11789;53.482;9.862;2023-02-28T05:49:54;103313.81;;;-1.70;99.41
23241;BME280;11789;53.482;9.862;2023-02-28T05:52:20;103313.47;;;-1.84;99.64
23241;BME280;11789;53.482;9.862;2023-02-28T05:54:46;103314.75;;;-1.78;99.94
23241;BME280;11789;53.482;9.862;2023-02-28T05:57:12;103307.56;;;-1.74;99.77
23241;BME280;11789;53.482;9.862;2023-02-28T05:59:37;103314.56;;;-1.71;99.52
23241;BME280;11789;53.482;9.862;2023-02-28T06:02:12;103322.38;;;-1.78;99.84
23241;BME280;11789;53.482;9.862;2023-02-28T06:04:38;103327.09;;;-1.73;100.00
23241;BME280;11789;53.482;9.862;2023-02-28T06:07:03;103330.03;;;-1.68;99.53
23241;BME280;11789;53.482;9.862;2023-02-28T06:09:29;103329.78;;;-1.71;98.95
23241;BME280;11789;53.482;9.862;2023-02-28T06:11:56;103334.44;;;-1.76;99.18
23241;BME280;11789;53.482;9.862;2023-02-28T06:14:22;103337.09;;;-1.74;99.59
23241;BME280;11789;53.482;9.862;2023-02-28T06:16:47;103333.81;;;-1.73;100.00
23241;BME280;11789;53.482;9.862;2023-02-28T06:19:13;103332.03;;;-1.74;100.00
23241;BME280;11789;53.482;9.862;2023-02-28T06:21:40;103351.50;;;-1.84;100.00
23241;BME280;11789;53.482;9.862;2023-02-28T06:24:05;103343.97;;;-1.92;100.00
23241;BME280;11789;53.482;9.862;2023-02-28T06:26:31;103348.75;;;-1.95;100.00
23241;BME280;11789;53.482;9.862;2023-02-28T06:28:56;103341.37;;;-2.02;100.00
23241;BME280;11789;53.482;9.862;2023-02-28T06:31:22;103343.00;;;-2.03;100.00
23241;BME280;11789;53.482;9.862;2023-02-28T06:33:48;103341.69;;;-1.89;100.00
23241;BME280;11789;53.482;9.862;2023-02-28T06:36:15;103346.06;;;-1.78;100.00
23241;BME280;11789;53.482;9.862;2023-02-28T06:38:42;103349.66;;;-1.76;100.00
23241;BME280;11789;53.482;9.862;2023-02-28T06:41:09;103349.59;;;-1.86;100.00
23241;BME280;11789;53.482;9.862;2023-02-28T06:43:38;103356.66;;;-1.92;100.00
23241;BME280;11789;53.482;9.862;2023-02-28T06:46:06;103357.31;;;-1.85;100.00
23241;BME280;11789;53.482;9.862;2023-02-28T06:48:32;103350.19;;;-1.70;100.00
23241;BME280;11789;53.482;9.862;2023-02-28T06:51:03;103352.31;;;-1.55;98.89
23241;BME280;11789;53.482;9.862;2023-02-28T06:53:28;103354.72;;;-1.57;99.13
23241;BME280;11789;53.482;9.862;2023-02-28T06:55:54;103351.38;;;-1.66;99.50
23241;BME280;11789;53.482;9.862;2023-02-28T06:58:19;103351.31;;;-1.76;99.82
23241;BME280;11789;53.482;9.862;2023-02-28T07:00:45;103356.78;;;-1.72;99.89
23241;BME280;11789;53.482;9.862;2023-02-28T07:03:12;103355.44;;;-1.58;99.67
23241;BME280;11789;53.482;9.862;2023-02-28T07:05:38;103355.16;;;-1.42;99.45
23241;BME280;11789;53.482;9.862;2023-02-28T07:08:05;103358.91;;;-0.99;98.48
23241;BME280;11789;53.482;9.862;2023-02-28T07:10:32;103356.34;;;-0.30;95.94
23241;BME280;11789;53.482;9.862;2023-02-28T07:13:01;103348.00;;;0.76;89.09
23241;BME280;11789;53.482;9.862;2023-02-28T07:15:26;103353.03;;;0.55;87.62
23241;BME280;11789;53.482;9.862;2023-02-28T07:17:52;103359.00;;;0.13;89.16
23241;BME280;11789;53.482;9.862;2023-02-28T07:20:17;103358.34;;;-0.05;90.12
23241;BME280;11789;53.482;9.862;2023-02-28T07:22:43;103361.94;;;0.07;90.58
23241;BME280;11789;53.482;9.862;2023-02-28T07:25:08;103358.00;;;1.17;89.11
23241;BME280;11789;53.482;9.862;2023-02-28T07:27:34;103351.63;;;2.48;80.40
23241;BME280;11789;53.482;9.862;2023-02-28T07:30:00;103349.06;;;2.72;79.72
23241;BME280;11789;53.482;9.862;2023-02-28T07:32:29;103349.81;;;2.94;79.81
23241;BME280;11789;53.482;9.862;2023-02-28T07:34:54;103348.37;;;3.23;78.03
23241;BME280;11789;53.482;9.862;2023-02-28T07:37:20;103352.28;;;3.43;76.68
23241;BME280;11789;53.482;9.862;2023-02-28T07:39:46;103343.38;;;3.87;75.25
23241;BME280;11789;53.482;9.862;2023-02-28T07:42:11;103333.25;;;4.82;70.63
23241;BME280;11789;53.482;9.862;2023-02-28T07:44:40;103340.69;;;5.33;67.87
23241;BME280;11789;53.482;9.862;2023-02-28T07:47:07;103336.56;;;5.65;65.16
23241;BME280;11789;53.482;9.862;2023-02-28T07:49:34;103336.66;;;5.66;64.74
23241;BME280;11789;53.482;9.862;2023-02-28T07:52:00;103340.56;;;5.60;65.22
23241;BME280;11789;53.482;9.862;2023-02-28T07:54:25;103343.66;;;5.26;65.47
23241;BME280;11789;53.482;9.862;2023-02-28T07:56:50;103348.66;;;4.97;65.97
23241;BME280;11789;53.482;9.862;2023-02-28T07:59:16;103343.00;;;4.87;66.49
23241;BME280;11789;53.482;9.862;2023-02-28T08:01:41;103351.06;;;4.93;66.31
23241;BME280;11789;53.482;9.862;2023-02-28T08:04:09;103353.62;;;4.93;66.89
23241;BME280;11789;53.482;9.862;2023-02-28T08:06:35;103346.72;;;4.92;66.84
23241;BME280;11789;53.482;9.862;2023-02-28T08:09:00;103346.22;;;4.98;66.12
23241;BME280;11789;53.482;9.862;2023-02-28T08:11:26;103351.44;;;5.00;66.11
23241;BME280;11789;53.482;9.862;2023-02-28T08:13:51;103347.63;;;4.93;66.75
23241;BME280;11789;53.482;9.862;2023-02-28T08:16:21;103349.84;;;5.02;67.46
23241;BME280;11789;53.482;9.862;2023-02-28T08:18:51;103355.37;;;4.94;68.29
23241;BME280;11789;53.482;9.862;2023-02-28T08:21:17;103354.47;;;5.07;67.01
23241;BME280;11789;53.482;9.862;2023-02-28T08:23:45;103359.25;;;5.29;66.21
23241;BME280;11789;53.482;9.862;2023-02-28T08:26:11;103353.72;;;5.51;65.92
23241;BME280;11789;53.482;9.862;2023-02-28T08:28:36;103358.19;;;5.68;63.48
23241;BME280;11789;53.482;9.862;2023-02-28T08:31:08;103355.37;;;5.79;62.69
23241;BME280;11789;53.482;9.862;2023-02-28T08:33:33;103361.94;;;5.88;62.10
23241;BME280;11789;53.482;9.862;2023-02-28T08:35:59;103356.72;;;6.02;61.52
23241;BME280;11789;53.482;9.862;2023-02-28T08:38:25;103359.47;;;6.19;62.55
23241;BME280;11789;53.482;9.862;2023-02-28T08:40:57;103357.00;;;8.49;55.36
23241;BME280;11789;53.482;9.862;2023-02-28T08:43:24;103349.63;;;7.87;55.36
23241;BME280;11789;53.482;9.862;2023-02-28T08:45:52;103343.75;;;11.52;46.49
23241;BME280;11789;53.482;9.862;2023-02-28T08:48:17;103335.06;;;13.44;40.68
23241;BME280;11789;53.482;9.862;2023-02-28T08:50:43;103335.88;;;15.75;35.65
23241;BME280;11789;53.482;9.862;2023-02-28T08:53:08;103330.91;;;17.96;30.53
23241;BME280;11789;53.482;9.862;2023-02-28T08:55:33;103334.75;;;18.47;28.80
23241;BME280;11789;53.482;9.862;2023-02-28T08:57:59;103341.37;;;15.00;32.66
23241;BME280;11789;53.482;9.862;2023-02-28T09:00:26;103338.72;;;13.85;35.47
23241;BME280;11789;53.482;9.862;2023-02-28T09:02:52;103339.59;;;12.62;36.97
23241;BME280;11789;53.482;9.862;2023-02-28T09:05:17;103352.50;;;11.32;40.30
23241;BME280;11789;53.482;9.862;2023-02-28T09:07:42;103357.81;;;10.03;43.04
23241;BME280;11789;53.482;9.862;2023-02-28T09:10:09;103346.03;;;10.29;42.90
23241;BME280;11789;53.482;9.862;2023-02-28T09:12:35;103346.53;;;9.59;45.24
23241;BME280;11789;53.482;9.862;2023-02-28T09:15:00;103347.81;;;10.11;44.54
23241;BME280;11789;53.482;9.862;2023-02-28T09:17:26;103354.09;;;9.76;42.73
23241;BME280;11789;53.482;9.862;2023-02-28T09:20:10;103348.50;;;9.46;43.80
23241;BME280;11789;53.482;9.862;2023-02-28T09:22:36;103352.56;;;8.82;43.81
23241;BME280;11789;53.482;9.862;2023-02-28T09:25:01;103351.38;;;8.22;44.72
23241;BME280;11789;53.482;9.862;2023-02-28T09:27:29;103352.44;;;8.10;44.40
23241;BME280;11789;53.482;9.862;2023-02-28T09:29:55;103354.78;;;8.05;43.60
23241;BME280;11789;53.482;9.862;2023-02-28T09:32:20;103356.22;;;7.82;43.06
23241;BME280;11789;53.482;9.862;2023-02-28T09:34:46;103353.53;;;7.97;43.08
23241;BME280;11789;53.482;9.862;2023-02-28T09:37:11;103356.59;;;8.06;43.40
23241;BME280;11789;53.482;9.862;2023-02-28T09:39:36;103359.16;;;8.06;42.08
23241;BME280;11789;53.482;9.862;2023-02-28T09:42:03;103363.97;;;8.16;41.66
23241;BME280;11789;53.482;9.862;2023-02-28T09:44:38;103358.94;;;8.19;42.10
23241;BME280;11789;53.482;9.862;2023-02-28T09:47:24;103359.22;;;8.07;41.48
23241;BME280;11789;53.482;9.862;2023-02-28T09:49:52;103361.44;;;8.18;41.11
23241;BME280;11789;53.482;9.862;2023-02-28T09:52:21;103364.94;;;8.36;40.40
23241;BME280;11789;53.482;9.862;2023-02-28T09:54:48;103366.59;;;8.36;40.84
23241;BME280;11789;53.482;9.862;2023-02-28T09:57:35;103374.72;;;7.91;41.31
23241;BME280;11789;53.482;9.862;2023-02-28T10:00:32;103375.25;;;7.68;41.19
23241;BME280;11789;53.482;9.862;2023-02-28T10:05:52;103373.81;;;7.57;42.41
23241;BME280;11789;53.482;9.862;2023-02-28T10:08:25;103377.50;;;7.29;42.43
23241;BME280;11789;53.482;9.862;2023-02-28T10:11:07;103379.75;;;7.07;43.93
23241;BME280;11789;53.482;9.862;2023-02-28T10:13:43;103379.75;;;6.75;45.74
23241;BME280;11789;53.482;9.862;2023-02-28T10:16:15;103372.69;;;6.57;47.09
23241;BME280;11789;53.482;9.862;2023-02-28T10:18:52;103375.13;;;6.39;47.84
23241;BME280;11789;53.482;9.862;2023-02-28T10:21:34;103374.00;;;6.19;48.08
23241;BME280;11789;53.482;9.862;2023-02-28T10:24:14;103376.09;;;5.96;47.98
23241;BME280;11789;53.482;9.862;2023-02-28T10:26:45;103371.53;;;5.78;48.74
23241;BME280;11789;53.482;9.862;2023-02-28T10:29:14;103371.91;;;5.69;49.30
23241;BME280;11789;53.482;9.862;2023-02-28T10:31:40;103377.56;;;5.63;50.12
23241;BME280;11789;53.482;9.862;2023-02-28T10:34:07;103374.72;;;5.59;51.16
23241;BME280;11789;53.482;9.862;2023-02-28T10:36:37;103375.41;;;5.56;50.79
23241;BME280;11789;53.482;9.862;2023-02-28T10:39:39;103372.91;;;5.43;50.65
23241;BME280;11789;53.482;9.862;2023-02-28T10:42:22;103374.31;;;5.38;49.20
23241;BME280;11789;53.482;9.862;2023-02-28T10:45:06;103379.09;;;5.18;50.72
23241;BME280;11789;53.482;9.862;2023-02-28T10:47:35;103372.69;;;5.12;50.33
23241;BME280;11789;53.482;9.862;2023-02-28T10:50:03;103371.22;;;5.15;51.04
23241;BME280;11789;53.482;9.862;2023-02-28T10:52:46;103373.69;;;5.14;51.32
23241;BME280;11789;53.482;9.862;2023-02-28T10:55:30;103374.06;;;5.20;50.57
23241;BME280;11789;53.482;9.862;2023-02-28T10:57:56;103371.91;;;5.13;51.29
23241;BME280;11789;53.482;9.862;2023-02-28T11:00:24;103370.31;;;5.15;50.74
23241;BME280;11789;53.482;9.862;2023-02-28T11:02:51;103370.09;;;5.25;50.92
23241;BME280;11789;53.482;9.862;2023-02-28T11:05:37;103364.00;;;5.23;50.86
23241;BME280;11789;53.482;9.862;2023-02-28T11:08:11;103370.81;;;5.23;50.94
23241;BME280;11789;53.482;9.862;2023-02-28T11:10:38;103367.69;;;5.13;51.47
23241;BME280;11789;53.482;9.862;2023-02-28T11:13:05;103369.16;;;4.97;51.62
23241;BME280;11789;53.482;9.862;2023-02-28T11:15:32;103378.75;;;4.99;51.00
23241;BME280;11789;53.482;9.862;2023-02-28T11:18:01;103379.44;;;4.97;51.40
23241;BME280;11789;53.482;9.862;2023-02-28T11:20:30;103374.78;;;5.04;50.44
23241;BME280;11789;53.482;9.862;2023-02-28T11:23:00;103364.22;;;5.13;50.51
23241;BME280;11789;53.482;9.862;2023-02-28T11:27:59;103368.94;;;5.20;49.99
23241;BME280;11789;53.482;9.862;2023-02-28T11:30:35;103372.28;;;5.19;50.55
23241;BME280;11789;53.482;9.862;2023-02-28T11:33:27;103368.19;;;5.08;51.13
23241;BME280;11789;53.482;9.862;2023-02-28T11:35:58;103364.34;;;5.01;52.29
23241;BME280;11789;53.482;9.862;2023-02-28T11:38:26;103359.31;;;5.03;52.30
23241;BME280;11789;53.482;9.862;2023-02-28T11:46:40;103353.19;;;5.01;53.02
23241;BME280;11789;53.482;9.862;2023-02-28T11:49:30;103366.22;;;5.04;52.79
23241;BME280;11789;53.482;9.862;2023-02-28T11:52:15;103345.47;;;5.14;50.88
23241;BME280;11789;53.482;9.862;2023-02-28T11:55:05;103344.38;;;5.24;51.45
23241;BME280;11789;53.482;9.862;2023-02-28T11:58:09;103342.72;;;5.11;51.93
23241;BME280;11789;53.482;9.862;2023-02-28T12:01:01;103337.66;;;4.98;51.86
23241;BME280;11789;53.482;9.862;2023-02-28T12:06:25;103337.00;;;5.15;51.58
23241;BME280;11789;53.482;9.862;2023-02-28T12:09:18;103328.41;;;5.14;52.08
23241;BME280;11789;53.482;9.862;2023-02-28T12:11:53;103325.75;;;5.13;51.96
23241;BME280;11789;53.482;9.862;2023-02-28T12:22:28;103307.19;;;5.17;51.77
23241;BME280;11789;53.482;9.862;2023-02-28T12:27:37;103300.28;;;5.16;51.79
23241;BME280;11789;53.482;9.862;2023-02-28T12:30:24;103290.16;;;5.17;52.13
23241;BME280;11789;53.482;9.862;2023-02-28T12:33:04;103298.56;;;5.30;51.75
23241;BME280;11789;53.482;9.862;2023-02-28T12:46:53;103280.03;;;5.63;47.70
23241;BME280;11789;53.482;9.862;2023-02-28T12:51:50;103274.91;;;5.63;48.13
23241;BME280;11789;53.482;9.862;2023-02-28T12:54:27;103264.53;;;5.62;46.40
23241;BME280;11789;53.482;9.862;2023-02-28T12:57:06;103260.37;;;5.64;45.67
23241;BME280;11789;53.482;9.862;2023-02-28T12:59:42;103264.91;;;5.68;44.34
23241;BME280;11789;53.482;9.862;2023-02-28T13:04:55;103258.09;;;5.68;43.41
23241;BME280;11789;53.482;9.862;2023-02-28T13:10:15;103242.44;;;5.64;44.93
23241;BME280;11789;53.482;9.862;2023-02-28T13:12:54;103236.31;;;5.62;45.08
23241;BME280;11789;53.482;9.862;2023-02-28T13:15:24;103231.56;;;5.68;43.58
23241;BME280;11789;53.482;9.862;2023-02-28T13:17:52;103228.00;;;5.66;42.37
23241;BME280;11789;53.482;9.862;2023-02-28T13:20:21;103232.25;;;5.65;39.07
23241;BME280;11789;53.482;9.862;2023-02-28T13:22:51;103238.44;;;5.69;38.55
23241;BME280;11789;53.482;9.862;2023-02-28T13:27:59;103227.84;;;5.63;39.07
23241;BME280;11789;53.482;9.862;2023-02-28T13:38:45;103220.91;;;5.47;40.70
23241;BME280;11789;53.482;9.862;2023-02-28T13:44:14;103217.66;;;5.50;40.40
23241;BME280;11789;53.482;9.862;2023-02-28T13:55:21;103226.56;;;5.56;38.61
23241;BME280;11789;53.482;9.862;2023-02-28T14:06:16;103222.78;;;5.50;37.53
23241;BME280;11789;53.482;9.862;2023-02-28T14:08:55;103226.31;;;5.52;37.95
23241;BME280;11789;53.482;9.862;2023-02-28T14:11:31;103220.28;;;5.51;37.91
23241;BME280;11789;53.482;9.862;2023-02-28T14:13:59;103217.56;;;5.48;38.59
23241;BME280;11789;53.482;9.862;2023-02-28T14:16:34;103227.28;;;5.39;40.60
23241;BME280;11789;53.482;9.862;2023-02-28T14:19:03;103226.69;;;5.43;39.24
23241;BME280;11789;53.482;9.862;2023-02-28T14:21:36;103230.47;;;5.50;37.98
23241;BME280;11789;53.482;9.862;2023-02-28T14:24:39;103230.47;;;5.50;38.76
23241;BME280;11789;53.482;9.862;2023-02-28T14:27:39;103228.97;;;5.53;39.48
23241;BME280;11789;53.482;9.862;2023-02-28T14:35:35;103222.44;;;5.43;41.83
23241;BME280;11789;53.482;9.862;2023-02-28T14:38:05;103226.50;;;5.40;41.98
23241;BME280;11789;53.482;9.862;2023-02-28T14:40:33;103224.81;;;5.40;41.79
23241;BME280;11789;53.482;9.862;2023-02-28T14:43:04;103228.59;;;5.47;41.17
23241;BME280;11789;53.482;9.862;2023-02-28T14:45:32;103229.41;;;5.46;41.61
23241;BME280;11789;53.482;9.862;2023-02-28T14:48:00;103227.44;;;5.42;42.19
23241;BME280;11789;53.482;9.862;2023-02-28T14:50:30;103224.00;;;5.41;41.34
23241;BME280;11789;53.482;9.862;2023-02-28T14:52:57;103215.34;;;5.39;41.62
23241;BME280;11789;53.482;9.862;2023-02-28T14:55:29;103224.66;;;5.37;42.07